x

Bw Pioneer Buoy - Walker Ridge 249 (42360) Wave Buoy

12:00am - Wed 30th Jul 2014 All times are UTC.

  • Sig Wave height 2.3ft
  • Peak Period 4s
  • Wind
    20mph, 27mph gusts
  • Sea Temp 88°f
  • Air Temp 85°f
  • Sea Pressure 1016mb

More Historic Weather Station data

Upgrade to MSW Pro to gain access to the past 30 days of data for over 8000 Wavebouys and Weather Stations around the globe.

Join Pro

Comparision Forecast

View Surf forecast
   
Wed 07/30 12:00am 2.5ft 4s 20 27 mph 1016mb 88f 85f
Tue 07/29 11:00pm 2.5ft 4s 18 22 mph 1016.3mb 88f 86f
10:00pm 2ft 4s 18 22 mph 1016.4mb 88f 85f
9:00pm 2.5ft 4s 16 20 mph 1017mb 88f 86f
8:00pm 2ft 4s 16 20 mph 1017.4mb 88f 86f
7:00pm 2ft 4s 18 22 mph 1018mb 88f 86f
6:00pm 2ft 4s 18 22 mph 1018mb 87f 86f
5:00pm 1.6ft 4s 16 22 mph 1018.5mb 88f 85f
4:00pm 2ft 3s 18 22 mph 1019mb 88f 86f
3:00pm 1.6ft 3s 22 27 mph 1018.6mb 88f 85f
2:00pm 1.3ft 3s 20 25 mph 1018.5mb 88f 85f
1:00pm 1.3ft 3s 18 22 mph 1018.1mb 88f 85f
12:00pm 1ft 6s 16 18 mph 1017.7mb 88f 85f
11:00am 1ft 6s 11 13 mph 1016.8mb 88f 85f
10:00am 1ft 3s 11 16 mph 1016mb 88f 85f
9:00am 1ft 3s 11 13 mph 1016.3mb 88f 85f
8:00am 1ft 3s 9 11 mph 1016.6mb 88f 85f
7:00am 1ft 3s 11 16 mph 1017.2mb 88f 85f
6:00am 0.7ft  -  11 18 mph 1017.9mb 88f 85f
5:00am 0.7ft  -  11 13 mph 1018.5mb 88f 86f
4:00am 0.7ft  -  9 13 mph 1018.7mb 89f 85f
3:00am 0.7ft  -  7 11 mph 1018.1mb 89f 86f
2:00am 0.7ft  -  7 11 mph 1017.5mb 89f 86f
1:00am 1ft 6s 7 11 mph 1017mb 89f 86f
12:00am 0.7ft  -  7 11 mph 1017mb 89f 86f
Mon 07/28 11:00pm 1ft 8s 7 11 mph 1017.5mb 90f 87f
10:00pm 1ft 9s 7 9 mph 1018.2mb 90f 87f
9:00pm 1ft 8s 7 9 mph 1018.8mb 89f 87f